Time,TemperatureF,DewpointF,PressureIn,WindDirection,WindDirectionDegrees,WindSpeedMPH,WindSpeedGustMPH,Humidity,HourlyPrecipIn,Conditions,Clouds,dailyrainin,SoftwareType,DateUTC
2013-05-30 00:02:00,64.6,61.7,29.66,North,0,0.0,0.0,90,0.00,,,0.00,WUHU21623XXSP,2013-05-30 05:02:00,
2013-05-30 00:06:00,64.4,61.5,29.66,North,0,0.0,0.0,90,0.00,,,0.00,WUHU21623XXSP,2013-05-30 05:06:00,
2013-05-30 00:11:00,64.4,61.5,29.66,North,0,0.0,0.0,90,0.00,,,0.00,WUHU21623XXSP,2013-05-30 05:11:00,
2013-05-30 00:17:00,64.2,61.3,29.65,North,0,0.0,0.0,90,0.00,,,0.00,WUHU21623XXSP,2013-05-30 05:17:00,
2013-05-30 00:22:00,64.2,61.6,29.66,North,0,0.0,0.0,91,0.00,,,0.00,WUHU21623XXSP,2013-05-30 05:22:00,
2013-05-30 00:27:00,64.2,61.6,29.66,North,0,0.0,0.0,91,0.00,,,0.00,WUHU21623XXSP,2013-05-30 05:27:00,
2013-05-30 00:32:00,64.2,61.6,29.67,North,0,0.0,0.0,91,0.00,,,0.00,WUHU21623XXSP,2013-05-30 05:32:00,
2013-05-30 00:37:00,64.0,61.4,29.67,North,0,0.0,0.0,91,0.00,,,0.00,WUHU21623XXSP,2013-05-30 05:37:00,
2013-05-30 00:42:00,64.0,61.4,29.67,North,0,0.0,0.0,91,0.00,,,0.00,WUHU21623XXSP,2013-05-30 05:42:00,
2013-05-30 00:47:00,64.0,61.4,29.67,North,0,0.0,0.0,91,0.00,,,0.00,WUHU21623XXSP,2013-05-30 05:47:00,
2013-05-30 00:52:00,64.0,61.4,29.66,North,0,0.0,0.0,91,0.00,,,0.00,WUHU21623XXSP,2013-05-30 05:52:00,
2013-05-30 00:57:00,63.7,61.4,29.66,North,0,0.0,0.0,92,0.00,,,0.00,WUHU21623XXSP,2013-05-30 05:57:00,
2013-05-30 01:02:00,63.7,61.4,29.66,North,0,0.0,0.0,92,0.00,,,0.00,WUHU21623XXSP,2013-05-30 06:02:00,
2013-05-30 01:14:00,63.7,61.4,29.65,North,0,0.0,0.0,92,0.00,,,0.00,WUHU21623XXSP,2013-05-30 06:14:00,
2013-05-30 01:19:00,63.1,60.8,29.64,North,0,0.0,0.0,92,0.00,,,0.00,WUHU21623XXSP,2013-05-30 06:19:00,
2013-05-30 01:24:00,63.1,60.8,29.64,North,0,0.0,0.0,92,0.00,,,0.00,WUHU21623XXSP,2013-05-30 06:24:00,
2013-05-30 01:29:00,63.1,60.8,29.65,North,0,0.0,0.0,92,0.00,,,0.00,WUHU21623XXSP,2013-05-30 06:29:00,
2013-05-30 01:34:00,63.1,60.8,29.64,North,0,0.0,0.0,92,0.00,,,0.00,WUHU21623XXSP,2013-05-30 06:34:00,
2013-05-30 01:39:00,63.1,60.8,29.64,North,0,0.0,0.0,92,0.00,,,0.00,WUHU21623XXSP,2013-05-30 06:39:00,
2013-05-30 01:44:00,63.1,61.1,29.64,North,0,0.0,0.0,93,0.00,,,0.00,WUHU21623XXSP,2013-05-30 06:44:00,
2013-05-30 01:49:00,63.1,61.1,29.64,North,0,0.0,0.0,93,0.00,,,0.00,WUHU21623XXSP,2013-05-30 06:49:00,
2013-05-30 01:54:00,63.1,61.1,29.64,North,0,0.0,0.0,93,0.00,,,0.00,WUHU21623XXSP,2013-05-30 06:54:00,
2013-05-30 01:59:00,63.1,61.1,29.63,North,0,0.0,0.0,93,0.00,,,0.00,WUHU21623XXSP,2013-05-30 06:59:00,
2013-05-30 02:04:00,63.1,61.1,29.63,North,0,0.0,0.0,93,0.00,,,0.00,WUHU21623XXSP,2013-05-30 07:04:00,
2013-05-30 02:09:00,63.1,61.1,29.63,North,0,0.0,0.0,93,0.00,,,0.00,WUHU21623XXSP,2013-05-30 07:09:00,
2013-05-30 02:14:00,63.1,61.1,29.63,North,0,0.0,0.0,93,0.00,,,0.00,WUHU21623XXSP,2013-05-30 07:14:00,
2013-05-30 02:19:00,63.3,61.3,29.63,North,0,0.0,0.0,93,0.00,,,0.00,WUHU21623XXSP,2013-05-30 07:19:00,
2013-05-30 02:24:00,63.3,61.3,29.63,North,0,0.0,0.0,93,0.00,,,0.00,WUHU21623XXSP,2013-05-30 07:24:00,
2013-05-30 02:29:00,63.3,61.3,29.63,North,0,0.0,0.0,93,0.00,,,0.00,WUHU21623XXSP,2013-05-30 07:29:00,
2013-05-30 02:34:00,63.3,61.3,29.63,North,0,0.0,0.0,93,0.00,,,0.00,WUHU21623XXSP,2013-05-30 07:34:00,
2013-05-30 02:39:00,63.5,61.5,29.63,North,0,0.0,0.0,93,0.00,,,0.00,WUHU21623XXSP,2013-05-30 07:39:00,
2013-05-30 02:44:00,63.5,61.8,29.62,North,0,0.0,0.0,94,0.00,,,0.00,WUHU21623XXSP,2013-05-30 07:44:00,
2013-05-30 02:49:00,63.7,62.0,29.62,North,0,0.0,0.0,94,0.00,,,0.00,WUHU21623XXSP,2013-05-30 07:49:00,
2013-05-30 02:54:00,63.7,62.0,29.62,North,0,0.0,0.0,94,0.00,,,0.00,WUHU21623XXSP,2013-05-30 07:54:00,
2013-05-30 02:59:00,64.0,62.3,29.61,North,0,0.0,0.0,94,0.00,,,0.00,WUHU21623XXSP,2013-05-30 07:59:00,
2013-05-30 03:04:00,64.0,62.3,29.61,North,0,0.0,0.0,94,0.00,,,0.00,WUHU21623XXSP,2013-05-30 08:04:00,
2013-05-30 03:09:00,64.2,62.5,29.61,North,0,0.0,0.0,94,0.00,,,0.00,WUHU21623XXSP,2013-05-30 08:09:00,
2013-05-30 03:14:00,64.2,62.5,29.61,North,0,0.0,0.0,94,0.00,,,0.00,WUHU21623XXSP,2013-05-30 08:14:00,
2013-05-30 03:19:00,64.4,62.7,29.60,North,0,0.0,0.0,94,0.00,,,0.00,WUHU21623XXSP,2013-05-30 08:19:00,
2013-05-30 03:24:00,64.6,62.8,29.60,North,0,0.0,0.0,94,0.00,,,0.00,WUHU21623XXSP,2013-05-30 08:24:00,
2013-05-30 03:29:00,64.6,62.8,29.59,North,0,0.0,0.0,94,0.00,,,0.00,WUHU21623XXSP,2013-05-30 08:29:00,
2013-05-30 03:34:00,64.8,63.0,29.58,North,0,0.0,0.0,94,0.00,,,0.00,WUHU21623XXSP,2013-05-30 08:34:00,
2013-05-30 03:39:00,64.8,63.0,29.58,North,0,0.0,0.0,94,0.00,,,0.00,WUHU21623XXSP,2013-05-30 08:39:00,
2013-05-30 03:44:00,64.8,63.0,29.57,North,0,0.0,0.0,94,0.00,,,0.00,WUHU21623XXSP,2013-05-30 08:44:00,
2013-05-30 03:49:00,64.8,63.0,29.57,North,0,0.0,0.0,94,0.00,,,0.00,WUHU21623XXSP,2013-05-30 08:49:00,
2013-05-30 03:54:00,64.8,63.0,29.57,North,0,0.0,0.0,94,0.00,,,0.00,WUHU21623XXSP,2013-05-30 08:54:00,
2013-05-30 03:59:00,64.9,63.2,29.57,North,0,0.0,0.0,94,0.00,,,0.00,WUHU21623XXSP,2013-05-30 08:59:00,
2013-05-30 04:04:00,64.9,63.2,29.57,North,0,0.0,0.0,94,0.00,,,0.00,WUHU21623XXSP,2013-05-30 09:04:00,
2013-05-30 04:09:00,64.9,63.2,29.57,North,0,0.0,0.0,94,0.00,,,0.00,WUHU21623XXSP,2013-05-30 09:09:00,
2013-05-30 04:14:00,65.1,63.3,29.56,North,0,0.0,0.0,94,0.00,,,0.00,WUHU21623XXSP,2013-05-30 09:14:00,
2013-05-30 04:19:00,65.1,63.3,29.56,North,0,0.0,0.0,94,0.00,,,0.00,WUHU21623XXSP,2013-05-30 09:19:00,
2013-05-30 04:24:00,65.3,63.5,29.56,North,0,0.0,0.0,94,0.00,,,0.00,WUHU21623XXSP,2013-05-30 09:24:00,
2013-05-30 04:29:00,65.3,63.5,29.57,North,0,0.0,0.0,94,0.00,,,0.00,WUHU21623XXSP,2013-05-30 09:29:00,
2013-05-30 04:34:00,65.3,63.5,29.56,North,0,0.0,0.0,94,0.00,,,0.00,WUHU21623XXSP,2013-05-30 09:34:00,
2013-05-30 04:39:00,65.5,63.7,29.55,North,0,0.0,0.0,94,0.00,,,0.00,WUHU21623XXSP,2013-05-30 09:39:00,
2013-05-30 04:44:00,65.5,63.4,29.55,North,0,0.0,0.0,93,0.00,,,0.00,WUHU21623XXSP,2013-05-30 09:44:00,
2013-05-30 04:49:00,65.5,63.4,29.56,North,0,0.0,0.0,93,0.00,,,0.00,WUHU21623XXSP,2013-05-30 09:49:00,
2013-05-30 04:54:00,65.5,63.4,29.56,North,0,0.0,0.0,93,0.00,,,0.00,WUHU21623XXSP,2013-05-30 09:54:00,
2013-05-30 04:59:00,65.5,63.4,29.56,North,0,0.0,0.0,93,0.00,,,0.00,WUHU21623XXSP,2013-05-30 09:59:00,
2013-05-30 05:04:00,65.5,63.4,29.56,North,0,0.0,0.0,93,0.00,,,0.00,WUHU21623XXSP,2013-05-30 10:04:00,
2013-05-30 05:09:00,65.3,63.2,29.55,North,0,0.0,0.0,93,0.00,,,0.00,WUHU21623XXSP,2013-05-30 10:09:00,
2013-05-30 05:14:00,65.3,63.2,29.55,North,0,0.0,0.0,93,0.00,,,0.00,WUHU21623XXSP,2013-05-30 10:14:00,
2013-05-30 05:19:00,65.5,63.4,29.56,North,0,0.0,0.0,93,0.00,,,0.00,WUHU21623XXSP,2013-05-30 10:19:00,
2013-05-30 05:24:00,65.5,63.4,29.56,North,0,0.0,0.0,93,0.00,,,0.00,WUHU21623XXSP,2013-05-30 10:24:00,
2013-05-30 05:29:00,65.5,63.4,29.56,North,0,0.0,0.0,93,0.00,,,0.00,WUHU21623XXSP,2013-05-30 10:29:00,
2013-05-30 05:34:00,65.5,63.4,29.56,North,0,0.0,0.0,93,0.00,,,0.00,WUHU21623XXSP,2013-05-30 10:34:00,
2013-05-30 05:39:00,65.5,63.4,29.56,North,0,0.0,0.0,93,0.00,,,0.00,WUHU21623XXSP,2013-05-30 10:39:00,
2013-05-30 05:44:00,65.5,63.4,29.55,North,0,0.0,0.0,93,0.00,,,0.00,WUHU21623XXSP,2013-05-30 10:44:00,
2013-05-30 05:49:00,65.5,63.4,29.55,North,0,0.0,0.0,93,0.00,,,0.00,WUHU21623XXSP,2013-05-30 10:49:00,
2013-05-30 05:54:00,65.7,63.6,29.55,North,0,0.0,0.0,93,0.00,,,0.00,WUHU21623XXSP,2013-05-30 10:54:00,
2013-05-30 05:59:00,65.7,63.6,29.55,North,0,0.0,0.0,93,0.00,,,0.00,WUHU21623XXSP,2013-05-30 10:59:00,
2013-05-30 06:04:00,65.7,63.6,29.55,North,0,0.0,0.0,93,0.00,,,0.00,WUHU21623XXSP,2013-05-30 11:04:00,
2013-05-30 06:09:00,65.8,63.7,29.54,North,0,0.0,0.0,93,0.00,,,0.00,WUHU21623XXSP,2013-05-30 11:09:00,
2013-05-30 06:14:00,66.0,63.6,29.55,North,0,0.0,0.0,92,0.00,,,0.00,WUHU21623XXSP,2013-05-30 11:14:00,
2013-05-30 06:19:00,66.0,63.6,29.54,North,0,0.0,0.0,92,0.00,,,0.00,WUHU21623XXSP,2013-05-30 11:19:00,
2013-05-30 06:24:00,66.2,63.8,29.54,North,0,0.0,0.0,92,0.00,,,0.00,WUHU21623XXSP,2013-05-30 11:24:00,
2013-05-30 06:29:00,66.4,63.9,29.53,North,0,0.0,0.0,92,0.00,,,0.00,WUHU21623XXSP,2013-05-30 11:29:00,
2013-05-30 06:34:00,66.6,64.1,29.53,North,0,0.0,0.0,92,0.00,,,0.00,WUHU21623XXSP,2013-05-30 11:34:00,
2013-05-30 06:39:00,66.7,64.0,29.53,North,0,0.0,0.0,91,0.00,,,0.00,WUHU21623XXSP,2013-05-30 11:39:00,
2013-05-30 06:44:00,66.9,64.2,29.54,North,0,0.0,0.0,91,0.00,,,0.00,WUHU21623XXSP,2013-05-30 11:44:00,
2013-05-30 06:49:00,67.3,64.5,29.54,North,0,0.0,0.0,91,0.00,,,0.00,WUHU21623XXSP,2013-05-30 11:49:00,
2013-05-30 06:54:00,67.3,64.5,29.54,North,0,0.0,0.0,91,0.00,,,0.00,WUHU21623XXSP,2013-05-30 11:54:00,
2013-05-30 06:59:00,67.6,64.6,29.53,North,0,0.0,0.0,90,0.00,,,0.00,WUHU21623XXSP,2013-05-30 11:59:00,
2013-05-30 07:04:00,67.8,64.8,29.53,North,0,0.0,0.0,90,0.00,,,0.00,WUHU21623XXSP,2013-05-30 12:04:00,
2013-05-30 07:09:00,68.2,65.1,29.53,North,0,0.0,0.0,90,0.00,,,0.00,WUHU21623XXSP,2013-05-30 12:09:00,
2013-05-30 07:14:00,68.5,65.1,29.52,North,0,0.0,0.0,89,0.00,,,0.00,WUHU21623XXSP,2013-05-30 12:14:00,
2013-05-30 07:19:00,68.7,65.3,29.52,North,0,0.0,0.0,89,0.00,,,0.00,WUHU21623XXSP,2013-05-30 12:19:00,
2013-05-30 07:24:00,68.9,65.5,29.53,North,0,0.0,0.0,89,0.00,,,0.00,WUHU21623XXSP,2013-05-30 12:24:00,
2013-05-30 07:29:00,69.1,65.3,29.53,North,0,0.0,0.0,88,0.00,,,0.00,WUHU21623XXSP,2013-05-30 12:29:00,
2013-05-30 07:34:00,68.9,64.8,29.53,North,0,0.0,0.0,87,0.00,,,0.00,WUHU21623XXSP,2013-05-30 12:34:00,
2013-05-30 07:39:00,69.1,65.0,29.54,North,0,0.0,0.0,87,0.00,,,0.00,WUHU21623XXSP,2013-05-30 12:39:00,
2013-05-30 07:44:00,69.3,65.2,29.55,North,0,0.0,0.0,87,0.00,,,0.00,WUHU21623XXSP,2013-05-30 12:44:00,
2013-05-30 07:49:00,69.4,65.0,29.55,North,0,0.0,0.0,86,0.00,,,0.00,WUHU21623XXSP,2013-05-30 12:49:00,
2013-05-30 07:54:00,69.3,64.8,29.56,North,0,0.0,0.0,86,0.00,,,0.00,WUHU21623XXSP,2013-05-30 12:54:00,
2013-05-30 07:59:00,69.1,64.7,29.57,North,0,0.0,0.0,86,0.00,,,0.00,WUHU21623XXSP,2013-05-30 12:59:00,
2013-05-30 08:04:00,68.7,64.3,29.58,North,0,0.0,0.0,86,0.00,,,0.00,WUHU21623XXSP,2013-05-30 13:04:00,
2013-05-30 08:09:00,68.7,64.7,29.59,North,0,0.0,0.0,87,0.00,,,0.00,WUHU21623XXSP,2013-05-30 13:09:00,
2013-05-30 08:14:00,68.7,64.7,29.58,North,0,0.0,0.0,87,0.00,,,0.00,WUHU21623XXSP,2013-05-30 13:14:00,
2013-05-30 08:19:00,68.7,64.7,29.58,North,0,0.0,0.0,87,0.00,,,0.00,WUHU21623XXSP,2013-05-30 13:19:00,
2013-05-30 08:24:00,69.3,65.2,29.57,North,0,0.0,0.0,87,0.00,,,0.00,WUHU21623XXSP,2013-05-30 13:24:00,
2013-05-30 08:29:00,70.3,65.6,29.58,North,0,0.0,0.0,85,0.00,,,0.00,WUHU21623XXSP,2013-05-30 13:29:00,
2013-05-30 08:34:00,70.5,65.8,29.58,North,0,0.0,0.0,85,0.00,,,0.00,WUHU21623XXSP,2013-05-30 13:34:00,
2013-05-30 08:39:00,70.7,65.6,29.58,North,0,0.0,0.0,84,0.00,,,0.00,WUHU21623XXSP,2013-05-30 13:39:00,
2013-05-30 08:44:00,70.7,65.2,29.58,North,0,0.0,0.0,83,0.00,,,0.00,WUHU21623XXSP,2013-05-30 13:44:00,
2013-05-30 08:49:00,70.7,65.2,29.59,North,0,0.0,0.0,83,0.00,,,0.00,WUHU21623XXSP,2013-05-30 13:49:00,
2013-05-30 08:54:00,70.5,65.1,29.58,North,0,0.0,0.0,83,0.00,,,0.00,WUHU21623XXSP,2013-05-30 13:54:00,
2013-05-30 08:59:00,70.5,65.1,29.59,North,0,0.0,0.0,83,0.00,,,0.00,WUHU21623XXSP,2013-05-30 13:59:00,
2013-05-30 09:04:00,70.7,64.9,29.58,North,0,0.0,0.0,82,0.00,,,0.00,WUHU21623XXSP,2013-05-30 14:04:00,
2013-05-30 09:09:00,71.1,65.3,29.58,North,0,0.0,0.0,82,0.00,,,0.00,WUHU21623XXSP,2013-05-30 14:09:00,
2013-05-30 09:14:00,71.2,65.1,29.58,North,0,0.0,0.0,81,0.00,,,0.00,WUHU21623XXSP,2013-05-30 14:14:00,
2013-05-30 09:19:00,70.9,64.7,29.58,North,0,0.0,0.0,81,0.00,,,0.00,WUHU21623XXSP,2013-05-30 14:19:00,
2013-05-30 09:24:00,70.5,64.0,29.58,North,0,0.0,0.0,80,0.00,,,0.00,WUHU21623XXSP,2013-05-30 14:24:00,
2013-05-30 09:29:00,70.2,63.7,29.59,North,0,0.0,0.0,80,0.00,,,0.00,WUHU21623XXSP,2013-05-30 14:29:00,
2013-05-30 09:34:00,70.0,63.5,29.58,North,0,0.0,0.0,80,0.00,,,0.00,WUHU21623XXSP,2013-05-30 14:34:00,
2013-05-30 09:39:00,69.6,63.2,29.59,North,0,0.0,0.0,80,0.00,,,0.00,WUHU21623XXSP,2013-05-30 14:39:00,
2013-05-30 09:45:00,69.4,63.0,29.59,North,0,0.0,0.0,80,0.00,,,0.00,WUHU21623XXSP,2013-05-30 14:45:00,
2013-05-30 09:49:00,69.4,63.3,29.59,North,0,0.0,0.0,81,0.00,,,0.00,WUHU21623XXSP,2013-05-30 14:49:00,
2013-05-30 09:54:00,69.4,63.3,29.59,North,0,0.0,0.0,81,0.00,,,0.00,WUHU21623XXSP,2013-05-30 14:54:00,
2013-05-30 09:59:00,69.4,63.3,29.59,North,0,0.0,0.0,81,0.00,,,0.00,WUHU21623XXSP,2013-05-30 14:59:00,
2013-05-30 10:05:00,69.3,62.8,29.59,North,0,0.0,0.0,80,0.00,,,0.00,WUHU21623XXSP,2013-05-30 15:05:00,
2013-05-30 10:10:00,69.3,62.8,29.59,North,0,0.0,0.0,80,0.00,,,0.00,WUHU21623XXSP,2013-05-30 15:10:00,
2013-05-30 10:14:00,69.1,62.7,29.59,North,0,0.0,0.0,80,0.00,,,0.00,WUHU21623XXSP,2013-05-30 15:14:00,
2013-05-30 10:19:00,69.3,62.8,29.59,North,0,0.0,0.0,80,0.00,,,0.00,WUHU21623XXSP,2013-05-30 15:19:00,
2013-05-30 10:24:00,69.1,62.3,29.59,North,0,0.0,0.0,79,0.00,,,0.00,WUHU21623XXSP,2013-05-30 15:24:00,
2013-05-30 10:29:00,68.9,62.1,29.59,North,0,0.0,0.0,79,0.00,,,0.00,WUHU21623XXSP,2013-05-30 15:29:00,
2013-05-30 10:34:00,69.4,63.0,29.58,North,0,0.0,0.0,80,0.00,,,0.00,WUHU21623XXSP,2013-05-30 15:34:00,
2013-05-30 10:39:00,70.5,63.3,29.59,North,0,0.0,0.0,78,0.00,,,0.00,WUHU21623XXSP,2013-05-30 15:39:00,
2013-05-30 10:44:00,71.2,64.0,29.60,North,0,0.0,0.0,78,0.00,,,0.00,WUHU21623XXSP,2013-05-30 15:44:00,
2013-05-30 10:50:00,71.8,64.5,29.60,North,0,0.0,0.0,78,0.00,,,0.00,WUHU21623XXSP,2013-05-30 15:50:00,
2013-05-30 10:55:00,72.3,64.3,29.60,North,0,0.0,0.0,76,0.00,,,0.00,WUHU21623XXSP,2013-05-30 15:55:00,
2013-05-30 11:00:00,72.3,64.0,29.60,North,0,0.0,0.0,75,0.00,,,0.00,WUHU21623XXSP,2013-05-30 16:00:00,
2013-05-30 11:05:00,72.1,63.8,29.60,North,0,0.0,0.0,75,0.00,,,0.00,WUHU21623XXSP,2013-05-30 16:05:00,
2013-05-30 11:10:00,72.1,63.8,29.61,North,0,0.0,0.0,75,0.00,,,0.00,WUHU21623XXSP,2013-05-30 16:10:00,
2013-05-30 11:15:00,72.3,64.0,29.60,North,0,0.0,0.0,75,0.00,,,0.00,WUHU21623XXSP,2013-05-30 16:15:00,
2013-05-30 11:20:00,72.7,64.3,29.60,North,0,0.0,0.0,75,0.00,,,0.00,WUHU21623XXSP,2013-05-30 16:20:00,
2013-05-30 11:25:00,73.2,64.5,29.60,North,0,0.0,0.0,74,0.00,,,0.00,WUHU21623XXSP,2013-05-30 16:25:00,
2013-05-30 11:30:00,73.6,64.8,29.60,North,0,0.0,0.0,74,0.00,,,0.00,WUHU21623XXSP,2013-05-30 16:30:00,
2013-05-30 11:35:00,73.2,64.1,29.61,North,0,0.0,0.0,73,0.00,,,0.00,WUHU21623XXSP,2013-05-30 16:35:00,
2013-05-30 11:40:00,72.7,63.6,29.60,North,0,0.0,0.0,73,0.00,,,0.00,WUHU21623XXSP,2013-05-30 16:40:00,
2013-05-30 11:45:00,72.3,63.2,29.60,North,0,0.0,0.0,73,0.00,,,0.00,WUHU21623XXSP,2013-05-30 16:45:00,
2013-05-30 11:50:00,72.3,63.6,29.60,North,0,0.0,0.0,74,0.00,,,0.00,WUHU21623XXSP,2013-05-30 16:50:00,
2013-05-30 11:55:00,72.3,63.6,29.60,North,0,0.0,0.0,74,0.00,,,0.00,WUHU21623XXSP,2013-05-30 16:55:00,
2013-05-30 11:59:00,72.0,63.2,29.60,North,0,0.0,0.0,74,0.00,,,0.00,WUHU21623XXSP,2013-05-30 16:59:00,
2013-05-30 12:05:00,71.8,63.0,29.61,North,0,0.0,0.0,74,0.00,,,0.00,WUHU21623XXSP,2013-05-30 17:05:00,
2013-05-30 12:10:00,71.8,63.0,29.61,North,0,0.0,0.0,74,0.00,,,0.00,WUHU21623XXSP,2013-05-30 17:10:00,
2013-05-30 12:15:00,71.8,63.0,29.62,North,0,0.0,0.0,74,0.00,,,0.00,WUHU21623XXSP,2013-05-30 17:15:00,
2013-05-30 12:20:00,71.4,63.0,29.61,North,0,0.0,0.0,75,0.00,,,0.00,WUHU21623XXSP,2013-05-30 17:20:00,
2013-05-30 12:25:00,71.8,63.4,29.61,North,0,0.0,0.0,75,0.00,,,0.00,WUHU21623XXSP,2013-05-30 17:25:00,
2013-05-30 12:30:00,72.1,63.8,29.61,North,0,0.0,0.0,75,0.00,,,0.00,WUHU21623XXSP,2013-05-30 17:30:00,
2013-05-30 12:35:00,72.3,63.6,29.62,North,0,0.0,0.0,74,0.00,,,0.00,WUHU21623XXSP,2013-05-30 17:35:00,
2013-05-30 12:40:00,72.3,63.6,29.61,North,0,0.0,0.0,74,0.00,,,0.00,WUHU21623XXSP,2013-05-30 17:40:00,
2013-05-30 12:45:00,72.1,63.4,29.61,North,0,0.0,0.0,74,0.00,,,0.00,WUHU21623XXSP,2013-05-30 17:45:00,
2013-05-30 12:50:00,72.1,63.4,29.61,North,0,0.0,0.0,74,0.00,,,0.00,WUHU21623XXSP,2013-05-30 17:50:00,
2013-05-30 12:55:00,71.8,63.4,29.61,North,0,0.0,0.0,75,0.00,,,0.00,WUHU21623XXSP,2013-05-30 17:55:00,
2013-05-30 13:00:00,71.8,63.4,29.61,North,0,0.0,0.0,75,0.00,,,0.00,WUHU21623XXSP,2013-05-30 18:00:00,
2013-05-30 13:05:00,71.8,63.4,29.60,North,0,0.0,0.0,75,0.00,,,0.00,WUHU21623XXSP,2013-05-30 18:05:00,
2013-05-30 13:10:00,71.6,63.2,29.61,North,0,0.0,0.0,75,0.00,,,0.00,WUHU21623XXSP,2013-05-30 18:10:00,
2013-05-30 13:15:00,71.4,63.4,29.61,North,0,0.0,0.0,76,0.00,,,0.00,WUHU21623XXSP,2013-05-30 18:15:00,
2013-05-30 13:20:00,72.1,63.8,29.61,North,0,0.0,0.0,75,0.00,,,0.00,WUHU21623XXSP,2013-05-30 18:20:00,
2013-05-30 13:25:00,72.9,64.5,29.61,North,0,0.0,0.0,75,0.00,,,0.00,WUHU21623XXSP,2013-05-30 18:25:00,
2013-05-30 13:30:00,73.2,64.5,29.61,North,0,0.0,0.0,74,0.00,,,0.00,WUHU21623XXSP,2013-05-30 18:30:00,
2013-05-30 13:35:00,73.0,63.9,29.60,North,0,0.0,0.0,73,0.00,,,0.00,WUHU21623XXSP,2013-05-30 18:35:00,
2013-05-30 13:40:00,73.0,63.9,29.60,North,0,0.0,0.0,73,0.00,,,0.00,WUHU21623XXSP,2013-05-30 18:40:00,
2013-05-30 13:45:00,73.2,64.1,29.60,North,0,0.0,0.0,73,0.00,,,0.00,WUHU21623XXSP,2013-05-30 18:45:00,
2013-05-30 13:50:00,73.8,64.2,29.60,North,0,0.0,0.0,72,0.00,,,0.00,WUHU21623XXSP,2013-05-30 18:50:00,
2013-05-30 13:55:00,73.2,64.1,29.60,North,0,0.0,0.0,73,0.00,,,0.00,WUHU21623XXSP,2013-05-30 18:55:00,
2013-05-30 14:00:00,73.0,63.5,29.60,North,0,0.0,0.0,72,0.00,,,0.00,WUHU21623XXSP,2013-05-30 19:00:00,
2013-05-30 14:05:00,72.9,63.7,29.60,North,0,0.0,0.0,73,0.00,,,0.00,WUHU21623XXSP,2013-05-30 19:05:00,
2013-05-30 14:10:00,72.7,63.6,29.60,North,0,0.0,0.0,73,0.00,,,0.00,WUHU21623XXSP,2013-05-30 19:10:00,
2013-05-30 14:15:00,73.0,63.9,29.59,North,0,0.0,0.0,73,0.00,,,0.00,WUHU21623XXSP,2013-05-30 19:15:00,
2013-05-30 14:20:00,73.9,64.8,29.59,North,0,0.0,0.0,73,0.00,,,0.00,WUHU21623XXSP,2013-05-30 19:20:00,
2013-05-30 14:25:00,74.5,64.9,29.59,North,0,0.0,0.0,72,0.00,,,0.00,WUHU21623XXSP,2013-05-30 19:25:00,
2013-05-30 14:30:00,74.8,64.8,29.58,North,0,0.0,0.0,71,0.00,,,0.00,WUHU21623XXSP,2013-05-30 19:30:00,
2013-05-30 14:35:00,75.6,65.9,29.58,North,0,0.0,0.0,72,0.00,,,0.00,WUHU21623XXSP,2013-05-30 19:35:00,
2013-05-30 14:40:00,76.1,66.0,29.57,North,0,0.0,0.0,71,0.00,,,0.00,WUHU21623XXSP,2013-05-30 19:40:00,
2013-05-30 14:45:00,76.3,65.4,29.57,North,0,0.0,0.0,69,0.00,,,0.00,WUHU21623XXSP,2013-05-30 19:45:00,
2013-05-30 14:50:00,76.8,65.9,29.57,North,0,0.0,0.0,69,0.00,,,0.00,WUHU21623XXSP,2013-05-30 19:50:00,
2013-05-30 14:55:00,77.0,65.7,29.57,North,0,0.0,0.0,68,0.00,,,0.00,WUHU21623XXSP,2013-05-30 19:55:00,
2013-05-30 15:00:00,76.6,64.8,29.57,North,0,0.0,0.0,67,0.00,,,0.00,WUHU21623XXSP,2013-05-30 20:00:00,
2013-05-30 15:05:00,76.5,64.7,29.57,North,0,0.0,0.0,67,0.00,,,0.00,WUHU21623XXSP,2013-05-30 20:05:00,
2013-05-30 15:10:00,76.5,65.1,29.57,North,0,0.0,0.0,68,0.00,,,0.00,WUHU21623XXSP,2013-05-30 20:10:00,
2013-05-30 15:15:00,76.6,64.8,29.57,North,0,0.0,0.0,67,0.00,,,0.00,WUHU21623XXSP,2013-05-30 20:15:00,
2013-05-30 15:20:00,76.8,65.0,29.57,North,0,0.0,0.0,67,0.00,,,0.00,WUHU21623XXSP,2013-05-30 20:20:00,
2013-05-30 15:25:00,76.8,64.6,29.57,North,0,0.0,0.0,66,0.00,,,0.00,WUHU21623XXSP,2013-05-30 20:25:00,
2013-05-30 15:30:00,76.8,64.6,29.56,North,0,0.0,0.0,66,0.00,,,0.00,WUHU21623XXSP,2013-05-30 20:30:00,
2013-05-30 15:35:00,76.6,64.4,29.56,North,0,0.0,0.0,66,0.00,,,0.00,WUHU21623XXSP,2013-05-30 20:35:00,
2013-05-30 15:40:00,76.6,64.8,29.56,North,0,0.0,0.0,67,0.00,,,0.00,WUHU21623XXSP,2013-05-30 20:40:00,
2013-05-30 15:45:00,77.2,65.4,29.55,North,0,0.0,0.0,67,0.00,,,0.00,WUHU21623XXSP,2013-05-30 20:45:00,
2013-05-30 15:50:00,77.5,65.3,29.56,North,0,0.0,0.0,66,0.00,,,0.00,WUHU21623XXSP,2013-05-30 20:50:00,
2013-05-30 15:55:00,77.2,64.9,29.55,North,0,0.0,0.0,66,0.00,,,0.00,WUHU21623XXSP,2013-05-30 20:55:00,
2013-05-30 16:01:00,76.6,64.4,29.55,North,0,0.0,0.0,66,0.00,,,0.00,WUHU21623XXSP,2013-05-30 21:01:00,
2013-05-30 16:06:00,75.9,64.6,29.56,North,0,0.0,0.0,68,0.00,,,0.00,WUHU21623XXSP,2013-05-30 21:06:00,
2013-05-30 16:11:00,75.4,64.9,29.56,North,0,0.0,0.0,70,0.00,,,0.00,WUHU21623XXSP,2013-05-30 21:11:00,
2013-05-30 16:16:00,73.9,65.2,29.55,North,0,0.0,0.0,74,0.00,,,0.00,WUHU21623XXSP,2013-05-30 21:16:00,
2013-05-30 16:21:00,73.6,65.2,29.55,North,0,0.0,0.0,75,0.00,,,0.00,WUHU21623XXSP,2013-05-30 21:21:00,
2013-05-30 16:26:00,73.2,65.2,29.55,North,0,0.0,0.0,76,0.00,,,0.00,WUHU21623XXSP,2013-05-30 21:26:00,
2013-05-30 16:31:00,73.0,65.4,29.55,North,0,0.0,0.0,77,0.00,,,0.00,WUHU21623XXSP,2013-05-30 21:31:00,
2013-05-30 16:36:00,73.0,65.4,29.54,North,0,0.0,0.0,77,0.00,,,0.00,WUHU21623XXSP,2013-05-30 21:36:00,
2013-05-30 16:41:00,73.0,65.4,29.54,North,0,0.0,0.0,77,0.00,,,0.00,WUHU21623XXSP,2013-05-30 21:41:00,
2013-05-30 16:46:00,73.2,65.2,29.54,North,0,0.0,0.0,76,0.00,,,0.00,WUHU21623XXSP,2013-05-30 21:46:00,
2013-05-30 16:51:00,73.2,64.8,29.54,North,0,0.0,0.0,75,0.00,,,0.00,WUHU21623XXSP,2013-05-30 21:51:00,
2013-05-30 16:56:00,73.2,64.8,29.54,North,0,0.0,0.0,75,0.00,,,0.00,WUHU21623XXSP,2013-05-30 21:56:00,
2013-05-30 17:01:00,73.2,64.5,29.54,North,0,0.0,0.0,74,0.00,,,0.00,WUHU21623XXSP,2013-05-30 22:01:00,
2013-05-30 17:06:00,73.2,64.8,29.53,North,0,0.0,0.0,75,0.00,,,0.00,WUHU21623XXSP,2013-05-30 22:06:00,
2013-05-30 17:11:00,73.2,64.8,29.53,North,0,0.0,0.0,75,0.00,,,0.00,WUHU21623XXSP,2013-05-30 22:11:00,
2013-05-30 17:16:00,73.8,65.4,29.53,North,0,0.0,0.0,75,0.00,,,0.00,WUHU21623XXSP,2013-05-30 22:16:00,
2013-05-30 17:21:00,73.8,65.4,29.53,North,0,0.0,0.0,75,0.00,,,0.00,WUHU21623XXSP,2013-05-30 22:21:00,
2013-05-30 17:26:00,73.2,65.2,29.54,North,0,0.0,0.0,76,0.00,,,0.00,WUHU21623XXSP,2013-05-30 22:26:00,
2013-05-30 17:31:00,72.1,64.5,29.54,North,0,0.0,0.0,77,0.00,,,0.00,WUHU21623XXSP,2013-05-30 22:31:00,
2013-05-30 17:36:00,71.8,64.2,29.54,North,0,0.0,0.0,77,0.00,,,0.00,WUHU21623XXSP,2013-05-30 22:36:00,
2013-05-30 17:41:00,71.2,64.0,29.54,North,0,0.0,0.0,78,0.00,,,0.00,WUHU21623XXSP,2013-05-30 22:41:00,
2013-05-30 17:46:00,71.4,64.6,29.54,North,0,0.0,0.0,79,0.00,,,0.00,WUHU21623XXSP,2013-05-30 22:46:00,
2013-05-30 17:51:00,72.7,65.4,29.54,North,0,0.0,0.0,78,0.00,,,0.00,WUHU21623XXSP,2013-05-30 22:51:00,
2013-05-30 17:56:00,73.9,65.5,29.54,North,0,0.0,0.0,75,0.00,,,0.00,WUHU21623XXSP,2013-05-30 22:56:00,
2013-05-30 18:01:00,74.8,66.0,29.53,North,0,0.0,0.0,74,0.00,,,0.00,WUHU21623XXSP,2013-05-30 23:01:00,
2013-05-30 18:06:00,75.2,65.9,29.53,North,0,0.0,0.0,73,0.00,,,0.00,WUHU21623XXSP,2013-05-30 23:06:00,
2013-05-30 18:11:00,75.0,65.0,29.53,North,0,0.0,0.0,71,0.00,,,0.00,WUHU21623XXSP,2013-05-30 23:11:00,
2013-05-30 18:16:00,74.1,64.5,29.53,North,0,0.0,0.0,72,0.00,,,0.00,WUHU21623XXSP,2013-05-30 23:16:00,
2013-05-30 18:21:00,73.6,64.4,29.53,North,0,0.0,0.0,73,0.00,,,0.00,WUHU21623XXSP,2013-05-30 23:21:00,
2013-05-30 18:26:00,73.0,63.9,29.52,North,0,0.0,0.0,73,0.00,,,0.00,WUHU21623XXSP,2013-05-30 23:26:00,
2013-05-30 18:31:00,72.7,63.6,29.53,North,0,0.0,0.0,73,0.00,,,0.00,WUHU21623XXSP,2013-05-30 23:31:00,
2013-05-30 18:36:00,72.1,63.0,29.53,North,0,0.0,0.0,73,0.00,,,0.00,WUHU21623XXSP,2013-05-30 23:36:00,
2013-05-30 18:41:00,71.8,62.7,29.52,North,0,0.0,0.0,73,0.00,,,0.00,WUHU21623XXSP,2013-05-30 23:41:00,
2013-05-30 18:46:00,72.3,63.6,29.52,North,0,0.0,0.0,74,0.00,,,0.00,WUHU21623XXSP,2013-05-30 23:46:00,
2013-05-30 18:51:00,73.6,64.4,29.52,North,0,0.0,0.0,73,0.00,,,0.00,WUHU21623XXSP,2013-05-30 23:51:00,
2013-05-30 18:56:00,75.0,65.0,29.52,North,0,0.0,0.0,71,0.00,,,0.00,WUHU21623XXSP,2013-05-30 23:56:00,
2013-05-30 19:01:00,75.2,64.8,29.52,North,0,0.0,0.0,70,0.00,,,0.00,WUHU21623XXSP,2013-05-31 00:01:00,
2013-05-30 19:06:00,75.0,64.6,29.52,North,0,0.0,0.0,70,0.00,,,0.00,WUHU21623XXSP,2013-05-31 00:06:00,
2013-05-30 19:11:00,74.3,64.0,29.52,North,0,0.0,0.0,70,0.00,,,0.00,WUHU21623XXSP,2013-05-31 00:11:00,
2013-05-30 19:16:00,73.8,63.5,29.52,North,0,0.0,0.0,70,0.00,,,0.00,WUHU21623XXSP,2013-05-31 00:16:00,
2013-05-30 19:21:00,73.0,63.2,29.52,North,0,0.0,0.0,71,0.00,,,0.00,WUHU21623XXSP,2013-05-31 00:21:00,
2013-05-30 19:26:00,72.3,63.2,29.53,North,0,0.0,0.0,73,0.00,,,0.00,WUHU21623XXSP,2013-05-31 00:26:00,
2013-05-30 19:31:00,71.8,62.7,29.53,North,0,0.0,0.0,73,0.00,,,0.00,WUHU21623XXSP,2013-05-31 00:31:00,
2013-05-30 19:36:00,71.2,62.9,29.54,North,0,0.0,0.0,75,0.00,,,0.00,WUHU21623XXSP,2013-05-31 00:36:00,
2013-05-30 19:41:00,70.9,62.5,29.53,North,0,0.0,0.0,75,0.00,,,0.00,WUHU21623XXSP,2013-05-31 00:41:00,
2013-05-30 19:46:00,70.5,62.2,29.54,North,0,0.0,0.0,75,0.00,,,0.00,WUHU21623XXSP,2013-05-31 00:46:00,
2013-05-30 19:52:00,70.3,62.3,29.54,North,0,0.0,0.0,76,0.00,,,0.00,WUHU21623XXSP,2013-05-31 00:52:00,
2013-05-30 19:57:00,70.2,62.5,29.54,North,0,0.0,0.0,77,0.00,,,0.00,WUHU21623XXSP,2013-05-31 00:57:00,
2013-05-30 20:02:00,70.2,62.5,29.54,North,0,0.0,0.0,77,0.00,,,0.00,WUHU21623XXSP,2013-05-31 01:02:00,
2013-05-30 20:07:00,70.0,62.7,29.54,North,0,0.0,0.0,78,0.00,,,0.00,WUHU21623XXSP,2013-05-31 01:07:00,
2013-05-30 20:12:00,69.6,62.4,29.54,North,0,0.0,0.0,78,0.00,,,0.00,WUHU21623XXSP,2013-05-31 01:12:00,
2013-05-30 20:17:00,69.4,62.6,29.54,North,0,0.0,0.0,79,0.00,,,0.00,WUHU21623XXSP,2013-05-31 01:17:00,
2013-05-30 20:22:00,69.1,62.3,29.54,North,0,0.0,0.0,79,0.00,,,0.00,WUHU21623XXSP,2013-05-31 01:22:00,
2013-05-30 20:27:00,68.9,62.5,29.54,North,0,0.0,0.0,80,0.00,,,0.00,WUHU21623XXSP,2013-05-31 01:27:00,
2013-05-30 20:32:00,68.7,62.3,29.54,North,0,0.0,0.0,80,0.00,,,0.00,WUHU21623XXSP,2013-05-31 01:32:00,
2013-05-30 20:37:00,68.5,62.5,29.54,North,0,0.0,0.0,81,0.00,,,0.00,WUHU21623XXSP,2013-05-31 01:37:00,
2013-05-30 20:42:00,68.5,62.5,29.53,North,0,0.0,0.0,81,0.00,,,0.00,WUHU21623XXSP,2013-05-31 01:42:00,
2013-05-30 20:47:00,68.4,62.3,29.53,North,0,0.0,0.0,81,0.00,,,0.00,WUHU21623XXSP,2013-05-31 01:47:00,
2013-05-30 20:52:00,68.2,62.5,29.53,North,0,0.0,0.0,82,0.00,,,0.00,WUHU21623XXSP,2013-05-31 01:52:00,
2013-05-30 20:57:00,67.8,62.2,29.53,North,0,0.0,0.0,82,0.00,,,0.00,WUHU21623XXSP,2013-05-31 01:57:00,
2013-05-30 21:02:00,67.8,62.5,29.53,North,0,0.0,0.0,83,0.00,,,0.00,WUHU21623XXSP,2013-05-31 02:02:00,
2013-05-30 21:07:00,67.3,62.3,29.52,North,0,0.0,0.0,84,0.00,,,0.00,WUHU21623XXSP,2013-05-31 02:07:00,
2013-05-30 21:12:00,67.1,62.1,29.53,North,0,0.0,0.0,84,0.00,,,0.00,WUHU21623XXSP,2013-05-31 02:12:00,
2013-05-30 21:17:00,66.7,61.7,29.52,North,0,0.0,0.0,84,0.00,,,0.00,WUHU21623XXSP,2013-05-31 02:17:00,
2013-05-30 21:22:00,66.4,61.7,29.52,North,0,0.0,0.0,85,0.00,,,0.00,WUHU21623XXSP,2013-05-31 02:22:00,
2013-05-30 21:27:00,66.0,61.7,29.52,North,0,0.0,0.0,86,0.00,,,0.00,WUHU21623XXSP,2013-05-31 02:27:00,
2013-05-30 21:32:00,65.8,61.5,29.52,North,0,0.0,0.0,86,0.00,,,0.00,WUHU21623XXSP,2013-05-31 02:32:00,
2013-05-30 21:37:00,65.5,61.5,29.52,North,0,0.0,0.0,87,0.00,,,0.00,WUHU21623XXSP,2013-05-31 02:37:00,
2013-05-30 21:42:00,65.3,61.3,29.53,North,0,0.0,0.0,87,0.00,,,0.00,WUHU21623XXSP,2013-05-31 02:42:00,
2013-05-30 21:47:00,65.1,61.2,29.53,North,0,0.0,0.0,87,0.00,,,0.00,WUHU21623XXSP,2013-05-31 02:47:00,
2013-05-30 21:52:00,64.9,61.3,29.53,North,0,0.0,0.0,88,0.00,,,0.00,WUHU21623XXSP,2013-05-31 02:52:00,
2013-05-30 21:57:00,64.8,61.2,29.53,North,0,0.0,0.0,88,0.00,,,0.00,WUHU21623XXSP,2013-05-31 02:57:00,
2013-05-30 22:02:00,64.6,61.0,29.54,North,0,0.0,0.0,88,0.00,,,0.00,WUHU21623XXSP,2013-05-31 03:02:00,
2013-05-30 22:07:00,64.6,61.3,29.54,North,0,0.0,0.0,89,0.00,,,0.00,WUHU21623XXSP,2013-05-31 03:07:00,
2013-05-30 22:12:00,64.6,61.3,29.54,North,0,0.0,0.0,89,0.00,,,0.00,WUHU21623XXSP,2013-05-31 03:12:00,
2013-05-30 22:17:00,64.6,61.3,29.55,North,0,0.0,0.0,89,0.00,,,0.00,WUHU21623XXSP,2013-05-31 03:17:00,
2013-05-30 22:22:00,64.6,61.3,29.55,North,0,0.0,0.0,89,0.00,,,0.00,WUHU21623XXSP,2013-05-31 03:22:00,
2013-05-30 22:27:00,64.6,61.3,29.55,North,0,0.0,0.0,89,0.00,,,0.00,WUHU21623XXSP,2013-05-31 03:27:00,
2013-05-30 22:32:00,64.2,61.3,29.54,North,0,0.0,0.0,90,0.00,,,0.00,WUHU21623XXSP,2013-05-31 03:32:00,
2013-05-30 22:37:00,64.2,61.0,29.55,North,0,0.0,0.0,89,0.00,,,0.00,WUHU21623XXSP,2013-05-31 03:37:00,
2013-05-30 22:42:00,64.2,61.0,29.54,North,0,0.0,0.0,89,0.00,,,0.00,WUHU21623XXSP,2013-05-31 03:42:00,
2013-05-30 22:47:00,64.2,61.0,29.55,North,0,0.0,0.0,89,0.00,,,0.00,WUHU21623XXSP,2013-05-31 03:47:00,
2013-05-30 22:52:00,64.0,60.8,29.55,North,0,0.0,0.0,89,0.00,,,0.00,WUHU21623XXSP,2013-05-31 03:52:00,
2013-05-30 22:58:00,64.0,60.8,29.54,North,0,0.0,0.0,89,0.00,,,0.00,WUHU21623XXSP,2013-05-31 03:58:00,
2013-05-30 23:01:00,63.9,61.0,29.55,North,0,0.0,0.0,90,0.00,,,0.00,WUHU21623XXSP,2013-05-31 04:01:00,
2013-05-30 23:06:00,63.7,60.8,29.55,North,0,0.0,0.0,90,0.00,,,0.00,WUHU21623XXSP,2013-05-31 04:06:00,
2013-05-30 23:11:00,63.7,60.8,29.54,North,0,0.0,0.0,90,0.00,,,0.00,WUHU21623XXSP,2013-05-31 04:11:00,
2013-05-30 23:16:00,63.7,60.8,29.54,North,0,0.0,0.0,90,0.00,,,0.00,WUHU21623XXSP,2013-05-31 04:16:00,
2013-05-30 23:21:00,63.5,60.6,29.54,North,0,0.0,0.0,90,0.00,,,0.00,WUHU21623XXSP,2013-05-31 04:21:00,
2013-05-30 23:26:00,63.3,60.4,29.55,North,0,0.0,0.0,90,0.00,,,0.00,WUHU21623XXSP,2013-05-31 04:26:00,
2013-05-30 23:31:00,63.3,60.4,29.54,North,0,0.0,0.0,90,0.00,,,0.00,WUHU21623XXSP,2013-05-31 04:31:00,
2013-05-30 23:36:00,63.1,60.3,29.54,North,0,0.0,0.0,90,0.00,,,0.00,WUHU21623XXSP,2013-05-31 04:36:00,
2013-05-30 23:41:00,63.1,60.3,29.54,North,0,0.0,0.0,90,0.00,,,0.00,WUHU21623XXSP,2013-05-31 04:41:00,
2013-05-30 23:46:00,63.1,60.3,29.54,North,0,0.0,0.0,90,0.00,,,0.00,WUHU21623XXSP,2013-05-31 04:46:00,
2013-05-30 23:52:00,63.0,60.4,29.54,North,0,0.0,0.0,91,0.00,,,0.00,WUHU21623XXSP,2013-05-31 04:52:00,
2013-05-30 23:57:00,63.0,60.4,29.54,North,0,0.0,0.0,91,0.00,,,0.00,WUHU21623XXSP,2013-05-31 04:57:00,